Aviation Digital Data Service (ADDS)

Output produced by METARs form (0507 UTC 28 September 2016)
found at http://aviationweather.gov/adds/metars/
 
KFRG 280453Z AUTO 01003KT 10SM CLR 16/14 A2999 RMK AO2 SLP156 T01560144 402330156
KISP 280456Z AUTO 02003KT 7SM FEW060 15/14 A2999 RMK AO2 SLP155 T01500144 402330150
KISP 280239Z 2803/2824 VRB04KT P6SM SCT050 SCT250 
     FM281000 03006KT P6SM SCT250 
     FM281400 06014G22KT P6SM BKN020 
     FM281700 06015G23KT P6SM -RA OVC015
       
KJFK 280451Z 07004KT 10SM SCT250 17/15 A2999 RMK AO2 SLP156 T01720150 402390161
KJFK 280239Z 2803/2906 VRB04KT P6SM SCT250 
     FM280600 03006KT P6SM SCT250 
     FM281500 05012G17KT P6SM BKN025 
     FM281800 05014G21KT P6SM -RA BKN020 
     FM290300 05014G21KT P6SM -RA BKN015
       
KBDR 280239Z 2803/2824 VRB04KT P6SM SCT250 
     FM281000 03006KT P6SM SCT250 
     FM281300 05013G20KT P6SM SCT020 SCT250 
     FM281700 05014G22KT P6SM OVC015